Flight Track Log - Related Links

Times and Time Zones

All times are in EDT time to prevent confusion due to time zone crossing. See the SWA34 flight status page for this flight to view local times or setup timezone preferences in your user account.

Time Position Orientation Groundspeed Altitude Reporting Facility
EDT Latitude Longitude Course Direction KTS MPH feet Rate Location/Type
Wed 05:10:18 PM 32.8167 -96.8000 121° Southeast 189 217 2,400  Level Dallas / Fort Worth TRACON
Wed 05:11:18 PM 32.7833 -96.7500 128° Southeast 219 252 5,800 2,950 Climbing Dallas / Fort Worth TRACON
Wed 05:12:18 PM 32.7833 -96.6833 90° East 252 290 8,300 2,633 Climbing Dallas / Fort Worth TRACON
Wed 05:14:18 PM 32.9050 -96.8072 319° Northwest 332 382 13,700 2,567 Climbing Fort Worth Center
Wed 05:15:18 PM 32.9825 -96.8389 341° North 317 365 16,000 2,450 Climbing Fort Worth Center
Wed 05:16:18 PM 33.0869 -96.8656 348° North 330 380 18,600 2,400 Climbing Fort Worth Center
Wed 05:17:18 PM 33.1872 -96.8947 346° North 359 413 20,800 2,200 Climbing Fort Worth Center
Wed 05:18:18 PM 33.2917 -96.9214 348° North 375 432 23,000 1,900 Climbing Fort Worth Center
Wed 05:19:18 PM 33.4003 -96.9481 348° North 389 448 24,600 1,800 Climbing Fort Worth Center
Wed 05:20:18 PM 33.5131 -96.9400 North 394 453 26,600 1,800 Climbing Fort Worth Center
Wed 05:21:18 PM 33.6214 -96.8972 18° North 394 453 28,200 1,800 Climbing Fort Worth Center
Wed 05:22:18 PM 33.7275 -96.8542 19° North 401 461 30,200 1,850 Climbing Fort Worth Center
Wed 05:23:18 PM 33.8339 -96.8133 18° North 401 461 31,900 1,400 Climbing Fort Worth Center
Wed 05:24:18 PM 33.9400 -96.7725 18° North 394 453 33,000 550 Climbing Fort Worth Center
Wed 05:25:18 PM 34.0464 -96.7317 18° North 401 461 33,000  Level Fort Worth Center
Wed 05:26:18 PM 34.1567 -96.6856 19° North 401 461 33,000  Level Fort Worth Center
Wed 05:27:18 PM 34.2692 -96.6394 19° North 406 467 33,000  Level Fort Worth Center
Wed 05:28:18 PM 34.3814 -96.5958 18° North 416 479 33,000  Level Fort Worth Center
Wed 05:29:18 PM 34.4939 -96.5417 22° Northeast 422 486 33,000  Level Fort Worth Center
Wed 05:30:18 PM 34.6081 -96.4925 20° North 427 491 33,000 -100 Level Fort Worth Center
Wed 05:31:18 PM 34.7206 -96.4458 19° North 427 491 32,800 -550 Descending Fort Worth Center
Wed 05:32:18 PM 34.8328 -96.3967 20° North 427 491 31,900 -950 Descending Fort Worth Center
Wed 05:33:18 PM 34.9450 -96.3472 20° North 427 491 30,900 -950 Descending Fort Worth Center
Wed 05:34:18 PM 35.0550 -96.2975 20° North 427 491 30,000 -1,500 Descending Fort Worth Center
Wed 05:35:18 PM 35.1694 -96.2478 20° North 427 491 27,900 -2,700 Descending Fort Worth Center
Wed 05:36:18 PM 35.2836 -96.1981 20° North 427 491 24,600 -3,050 Descending Fort Worth Center
Wed 05:37:18 PM 35.3978 -96.1453 21° North 427 491 21,800 -2,802 Descending Fort Worth Center
Wed 05:39:20 PM 35.6100 -96.0511 20° North 404 465 16,100 -2,783 Descending Kansas City Center
Wed 05:40:04 PM 35.6914 -96.0547 358° North 381 438 14,100 -2,516 Descending Kansas City Center
Wed 05:40:22 PM 35.7119 -96.0600 348° North 381 438 13,500 -2,449 Descending Kansas City Center
Wed 05:40:53 PM 35.7669 -96.0811 343° North 366 421 12,100 -2,516 Descending Kansas City Center
Wed 05:41:24 PM 35.8122 -96.0947 346° North 373 429 10,900 -1,869 Descending Kansas City Center
Wed 05:41:54 PM 35.8644 -96.1175 341° North 359 413 10,200 -871 Descending Kansas City Center
Wed 05:42:26 PM 35.9044 -96.1342 341° North 358 412 10,000 -1,315 Descending Kansas City Center
Wed 05:43:07 PM 35.9661 -96.1306 North 289 333 8,600 -1,839 Descending Kansas City Center
Wed 05:43:28 PM 35.9858 -96.1275 North 302 348 8,100 -2,262 Descending Kansas City Center
Wed 05:44:08 PM 36.0489 -96.1175 North 291 335 6,300 -2,129 Descending Kansas City Center
Wed 05:44:30 PM 36.0661 -96.1092 21° North 297 342 5,900 -1,869 Descending Kansas City Center
Wed 05:45:09 PM 36.1233 -96.0794 23° Northeast 290 334 4,400 -1,645 Descending Kansas City Center
Wed 05:45:32 PM 36.1547 -96.0661 19° North 285 328 4,200 -111 Descending Kansas City Center
Wed 05:46:03 PM 36.1828 -96.0617 North 215 247 4,300 -581 Climbing Kansas City Center
Wed 05:46:34 PM 36.1947 -96.0394 56° Northeast 195 224 3,600 -1,475 Descending Kansas City Center
Wed 05:47:04 PM 36.1953 -96.0133 88° East 137 158 2,800 -1,355 Descending Kansas City Center
Wed 05:47:36 PM 36.1947 -95.9864 91° East 166 191 2,200 -1,082 Descending Kansas City Center
Wed 05:48:05 PM 36.1956 -95.9642 87° East 138 159 1,700 -871 Descending Kansas City Center
Wed 05:48:38 PM 36.1947 -95.9375 92° East 152 175 1,300 -787 Descending Kansas City Center
Wed 05:49:06 PM 36.1953 -95.9125 88° East 137 158 900 -581 Descending Kansas City Center
Wed 05:49:40 PM 36.1953 -95.8875 90° East 145 167 700 -353 Descending Kansas City Center
Wed 05:51:00 PM 36.1984 -95.8881 58° Northeast  Level Estimated
Wed 05:58:00 PM 36.1984 -95.8881 58° Northeast  Level Estimated

Login

Don't have an account? Register now (free) for customized features, flight alerts, and more!